createdAt,value
2022-10-27T00:00:44.888Z,66.75
2022-10-27T00:03:35.068Z,66.83
2022-10-27T00:06:24.450Z,66.05
2022-10-27T00:09:12.983Z,65.59
2022-10-27T00:12:03.249Z,64.90
2022-10-27T00:14:52.338Z,64.53
2022-10-27T00:17:42.344Z,65.19
2022-10-27T00:20:31.461Z,65.12
2022-10-27T00:23:20.824Z,64.07
2022-10-27T00:26:13.045Z,63.69
2022-10-27T00:29:02.222Z,63.10
2022-10-27T00:31:50.831Z,62.55
2022-10-27T00:34:40.175Z,62.32
2022-10-27T00:37:30.680Z,61.71
2022-10-27T00:40:20.363Z,61.93
2022-10-27T00:43:34.233Z,61.19
2022-10-27T00:46:46.969Z,61.40
2022-10-27T00:49:48.093Z,60.92
2022-10-27T00:52:48.992Z,60.68
2022-10-27T00:55:40.973Z,60.60
2022-10-27T00:58:30.337Z,59.50
2022-10-27T01:01:20.598Z,59.33
2022-10-27T01:04:10.090Z,58.95
2022-10-27T01:06:59.429Z,58.75
2022-10-27T01:09:49.466Z,58.77
2022-10-27T01:12:38.776Z,58.60
2022-10-27T01:15:49.525Z,58.68
2022-10-27T01:18:44.251Z,58.01
2022-10-27T01:22:10.261Z,58.09
2022-10-27T01:25:29.530Z,57.92
2022-10-27T01:28:51.919Z,58.18
2022-10-27T01:31:57.859Z,57.83
2022-10-27T01:34:47.854Z,56.86
2022-10-27T01:38:17.167Z,57.27
2022-10-27T01:41:34.262Z,57.26
2022-10-27T01:44:31.187Z,56.78
2022-10-27T01:47:23.193Z,56.54
2022-10-27T01:50:12.184Z,55.88
2022-10-27T01:53:02.521Z,55.71
2022-10-27T01:56:06.548Z,55.78
2022-10-27T01:59:17.680Z,55.76
2022-10-27T02:02:12.239Z,55.39
2022-10-27T02:05:42.146Z,55.43
2022-10-27T02:09:00.183Z,55.24
2022-10-27T02:11:53.497Z,55.00
2022-10-27T02:14:44.439Z,55.08
2022-10-27T02:17:40.127Z,54.85
2022-10-27T02:20:33.560Z,54.73
2022-10-27T02:23:23.784Z,54.65
2022-10-27T02:26:29.427Z,54.11
2022-10-27T02:29:24.682Z,54.33
2022-10-27T02:32:17.765Z,54.04
2022-10-27T02:35:07.495Z,53.75
2022-10-27T02:38:00.105Z,53.48
2022-10-27T02:40:49.415Z,53.32
2022-10-27T02:43:39.305Z,53.20
2022-10-27T02:46:28.197Z,52.71
2022-10-27T02:49:17.826Z,52.63
2022-10-27T02:52:07.177Z,52.21
2022-10-27T02:54:56.119Z,51.46
2022-10-27T02:57:49.638Z,50.40
2022-10-27T03:00:38.622Z,50.39
2022-10-27T03:03:27.716Z,49.74
2022-10-27T03:06:18.164Z,49.76
2022-10-27T03:09:07.913Z,50.39
2022-10-27T03:11:59.459Z,50.69
2022-10-27T03:14:48.901Z,50.76
2022-10-27T03:17:38.189Z,50.62
2022-10-27T03:20:27.090Z,50.75
2022-10-27T03:23:16.338Z,50.73
2022-10-27T03:26:05.753Z,50.67
2022-10-27T03:28:54.949Z,50.71
2022-10-27T03:31:44.193Z,51.00
2022-10-27T03:34:33.590Z,51.20
2022-10-27T03:37:23.475Z,51.01
2022-10-27T03:40:13.761Z,49.72
2022-10-27T03:43:05.526Z,49.86
2022-10-27T03:45:57.299Z,49.20
2022-10-27T03:48:51.697Z,49.09
2022-10-27T03:51:41.055Z,48.62
2022-10-27T03:54:37.051Z,48.33
2022-10-27T03:57:27.265Z,47.81
2022-10-27T04:00:16.683Z,47.77
2022-10-27T04:03:06.393Z,47.19
2022-10-27T04:05:56.549Z,46.60
2022-10-27T04:08:47.270Z,47.13
2022-10-27T04:11:36.423Z,46.59
2022-10-27T04:14:25.101Z,46.85
2022-10-27T04:17:13.925Z,46.32
2022-10-27T04:20:02.943Z,46.24
2022-10-27T04:22:52.381Z,46.51
2022-10-27T04:25:41.548Z,45.96
2022-10-27T04:28:30.939Z,46.51
2022-10-27T04:31:21.561Z,45.88
2022-10-27T04:34:13.292Z,46.05
2022-10-27T04:37:02.824Z,45.92
2022-10-27T04:39:51.759Z,45.94
2022-10-27T04:42:47.720Z,45.50
2022-10-27T04:45:39.719Z,45.46
2022-10-27T04:48:28.767Z,45.51
2022-10-27T04:51:22.304Z,45.59
2022-10-27T04:54:11.615Z,45.06
2022-10-27T04:57:01.372Z,45.50
2022-10-27T04:59:51.004Z,45.82
2022-10-27T05:02:39.857Z,45.31
2022-10-27T05:05:30.256Z,45.80
2022-10-27T05:08:19.901Z,45.26
2022-10-27T05:11:12.594Z,44.74
2022-10-27T05:14:04.568Z,45.00
2022-10-27T05:16:53.914Z,44.18
2022-10-27T05:19:46.033Z,44.14
2022-10-27T05:22:37.439Z,43.69
2022-10-27T05:25:26.297Z,44.04
2022-10-27T05:28:15.457Z,43.71
2022-10-27T05:31:04.646Z,43.09
2022-10-27T05:33:54.364Z,42.91
2022-10-27T05:36:43.955Z,42.23
2022-10-27T05:39:33.223Z,42.67
2022-10-27T05:42:22.133Z,42.16
2022-10-27T05:45:11.370Z,42.03
2022-10-27T05:48:05.750Z,42.53
2022-10-27T05:50:55.589Z,41.98
2022-10-27T05:53:44.325Z,42.07
2022-10-27T05:56:33.972Z,41.71
2022-10-27T05:59:22.868Z,42.12
2022-10-27T06:02:13.341Z,41.28
2022-10-27T06:05:02.780Z,41.93
2022-10-27T06:07:53.465Z,41.62
2022-10-27T06:10:43.357Z,41.99
2022-10-27T06:13:32.852Z,42.23
2022-10-27T06:16:23.044Z,42.01
2022-10-27T06:19:12.757Z,42.23
2022-10-27T06:22:01.732Z,42.26
2022-10-27T06:24:50.831Z,42.12
2022-10-27T06:27:39.544Z,41.87
2022-10-27T06:30:31.550Z,42.25
2022-10-27T06:33:21.795Z,42.59
2022-10-27T06:36:11.608Z,42.18
2022-10-27T06:39:00.970Z,42.42
2022-10-27T06:41:53.108Z,43.00
2022-10-27T06:44:44.816Z,42.64
2022-10-27T06:47:34.262Z,41.95
2022-10-27T06:50:23.480Z,42.14
2022-10-27T06:53:13.245Z,41.80
2022-10-27T06:56:02.031Z,42.21
2022-10-27T06:58:54.072Z,41.91
2022-10-27T07:01:46.423Z,41.99
2022-10-27T07:04:36.243Z,41.58
2022-10-27T07:07:28.518Z,41.78
2022-10-27T07:10:18.495Z,42.31
2022-10-27T07:13:07.730Z,41.92
2022-10-27T07:15:56.680Z,42.13
2022-10-27T07:18:50.536Z,42.45
2022-10-27T07:21:39.748Z,42.00
2022-10-27T07:24:32.129Z,42.16
2022-10-27T07:27:21.739Z,41.66
2022-10-27T07:30:11.306Z,41.49
2022-10-27T07:33:00.393Z,41.43
2022-10-27T07:35:54.173Z,41.14
2022-10-27T07:38:43.737Z,41.44
2022-10-27T07:41:33.069Z,41.56
2022-10-27T07:44:22.564Z,41.89
2022-10-27T07:47:11.631Z,41.09
2022-10-27T07:50:00.460Z,41.21
2022-10-27T07:52:51.603Z,40.60
2022-10-27T07:55:41.397Z,40.75
2022-10-27T07:58:31.470Z,40.35
2022-10-27T08:01:20.953Z,40.58
2022-10-27T08:04:12.985Z,40.27
2022-10-27T08:07:02.928Z,40.65
2022-10-27T08:09:52.114Z,41.08
2022-10-27T08:12:47.929Z,40.99
2022-10-27T08:15:38.521Z,41.03
2022-10-27T08:18:27.712Z,41.40
2022-10-27T08:21:16.339Z,41.59
2022-10-27T08:24:09.986Z,41.71
2022-10-27T08:26:59.446Z,41.47
2022-10-27T08:29:52.652Z,41.76
2022-10-27T08:32:43.317Z,41.60
2022-10-27T08:35:39.034Z,41.91
2022-10-27T08:38:31.171Z,41.67
2022-10-27T08:41:30.333Z,41.85
2022-10-27T08:44:49.730Z,42.10
2022-10-27T08:47:39.590Z,42.38
2022-10-27T08:50:30.726Z,42.30
2022-10-27T08:53:33.264Z,42.78
2022-10-27T08:56:23.137Z,43.01
2022-10-27T08:59:18.395Z,42.74
2022-10-27T09:02:29.169Z,42.98
2022-10-27T09:05:31.346Z,43.09
2022-10-27T09:08:28.119Z,43.64
2022-10-27T09:11:23.628Z,43.42
2022-10-27T09:14:41.976Z,43.70
2022-10-27T09:17:44.704Z,43.77
2022-10-27T09:20:52.585Z,43.69
2022-10-27T09:23:53.605Z,44.03
2022-10-27T09:26:43.968Z,44.50
2022-10-27T09:29:43.414Z,44.59
2022-10-27T09:32:35.109Z,44.79
2022-10-27T09:35:32.184Z,44.74
2022-10-27T09:38:24.573Z,45.09
2022-10-27T09:41:13.319Z,45.32
2022-10-27T09:44:03.125Z,45.56
2022-10-27T09:46:56.446Z,45.74
2022-10-27T09:49:49.246Z,45.90
2022-10-27T09:52:44.447Z,45.61
2022-10-27T09:55:54.669Z,45.98
2022-10-27T09:58:51.473Z,46.15
2022-10-27T10:01:50.920Z,45.87
2022-10-27T10:04:48.395Z,46.13
2022-10-27T10:07:42.007Z,46.22
2022-10-27T10:10:31.709Z,46.32
2022-10-27T10:13:21.686Z,46.37
2022-10-27T10:16:17.139Z,46.48
2022-10-27T10:19:21.536Z,46.89
2022-10-27T10:22:22.364Z,46.84
2022-10-27T10:25:25.728Z,47.22
2022-10-27T10:28:41.064Z,47.30
2022-10-27T10:31:32.212Z,46.91
2022-10-27T10:34:48.834Z,47.54
2022-10-27T10:37:55.969Z,47.78
2022-10-27T10:40:44.601Z,47.60
2022-10-27T10:43:33.822Z,47.19
2022-10-27T10:46:26.681Z,47.29
2022-10-27T10:49:43.248Z,47.49
2022-10-27T10:52:38.490Z,47.76
2022-10-27T10:55:36.442Z,47.69
2022-10-27T10:58:27.962Z,47.64
2022-10-27T11:01:16.828Z,47.58
2022-10-27T11:04:06.930Z,47.84
2022-10-27T11:07:02.137Z,48.24
2022-10-27T11:10:32.470Z,48.31
2022-10-27T11:13:23.419Z,47.90
2022-10-27T11:16:14.002Z,48.05
2022-10-27T11:19:08.602Z,47.57
2022-10-27T11:22:05.737Z,47.95
2022-10-27T11:25:07.169Z,48.10
2022-10-27T11:28:12.291Z,48.50
2022-10-27T11:31:37.218Z,48.64
2022-10-27T11:34:48.522Z,48.69
2022-10-27T11:37:46.564Z,48.95
2022-10-27T11:40:48.801Z,49.04
2022-10-27T11:43:50.574Z,49.02
2022-10-27T11:47:13.245Z,49.47
2022-10-27T11:50:40.694Z,49.48
2022-10-27T11:53:30.557Z,49.53
2022-10-27T11:56:44.343Z,49.42
2022-10-27T12:00:09.452Z,49.71
2022-10-27T12:03:20.450Z,49.55
2022-10-27T12:06:11.937Z,49.65
2022-10-27T12:09:28.966Z,49.72
2022-10-27T12:12:41.546Z,49.97
2022-10-27T12:15:57.048Z,50.37
2022-10-27T12:18:58.228Z,50.22
2022-10-27T12:22:09.018Z,50.13
2022-10-27T12:25:11.159Z,50.46
2022-10-27T12:28:03.386Z,50.34
2022-10-27T12:31:02.414Z,50.14
2022-10-27T12:33:57.036Z,50.89
2022-10-27T12:37:00.784Z,50.16
2022-10-27T12:39:58.888Z,49.86
2022-10-27T12:43:12.230Z,50.10
2022-10-27T12:46:30.251Z,50.56
2022-10-27T12:49:43.286Z,50.28
2022-10-27T12:52:36.108Z,50.09
2022-10-27T12:55:54.912Z,50.33
2022-10-27T12:58:53.276Z,50.28
2022-10-27T13:01:57.128Z,50.24
2022-10-27T13:05:19.571Z,50.24
2022-10-27T13:08:36.165Z,50.14
2022-10-27T13:11:38.482Z,50.36
2022-10-27T13:14:51.596Z,50.32
2022-10-27T13:17:56.940Z,50.64
2022-10-27T13:20:48.466Z,50.20
2022-10-27T13:23:55.321Z,50.26
2022-10-27T13:26:55.655Z,50.58
2022-10-27T13:30:32.279Z,50.60
2022-10-27T13:33:43.817Z,50.55
2022-10-27T13:36:32.824Z,50.27
2022-10-27T13:39:22.357Z,50.45
2022-10-27T13:42:18.306Z,50.67
2022-10-27T13:45:29.354Z,50.91
2022-10-27T13:48:18.362Z,50.94
2022-10-27T13:51:48.923Z,50.89
2022-10-27T13:54:55.278Z,51.28
2022-10-27T13:58:06.783Z,51.10
2022-10-27T14:01:21.822Z,51.19
2022-10-27T14:04:43.274Z,51.36
2022-10-27T14:07:39.708Z,51.41
2022-10-27T14:10:31.621Z,51.29
2022-10-27T14:13:37.418Z,51.64
2022-10-27T14:16:35.475Z,51.69
2022-10-27T14:19:31.442Z,51.95
2022-10-27T14:22:53.875Z,51.64
2022-10-27T14:25:47.873Z,51.71
2022-10-27T14:28:36.995Z,51.74
2022-10-27T14:31:26.500Z,52.25
2022-10-27T14:34:20.974Z,52.06
2022-10-27T14:37:22.005Z,51.92
2022-10-27T14:40:22.146Z,51.93
2022-10-27T14:43:23.042Z,52.10
2022-10-27T14:46:23.534Z,52.04
2022-10-27T14:49:47.251Z,52.55
2022-10-27T14:52:45.882Z,51.96
2022-10-27T14:55:40.161Z,52.26
2022-10-27T14:58:29.731Z,52.52
2022-10-27T15:01:27.628Z,52.86
2022-10-27T15:04:27.279Z,52.65
2022-10-27T15:07:21.108Z,53.02
2022-10-27T15:10:18.478Z,53.53
2022-10-27T15:13:12.389Z,53.64
2022-10-27T15:16:08.747Z,53.74
2022-10-27T15:19:02.203Z,53.93
2022-10-27T15:21:51.687Z,53.97
2022-10-27T15:24:40.455Z,54.56
2022-10-27T15:27:35.404Z,55.58
2022-10-27T15:30:24.163Z,55.60
2022-10-27T15:33:29.431Z,55.92
2022-10-27T15:36:18.497Z,56.20
2022-10-27T15:39:13.675Z,56.42
2022-10-27T15:42:05.638Z,56.43
2022-10-27T15:44:59.031Z,56.42
2022-10-27T15:47:52.188Z,56.67
2022-10-27T15:50:44.187Z,57.28
2022-10-27T15:53:46.262Z,57.60
2022-10-27T15:56:38.029Z,57.09
2022-10-27T15:59:30.049Z,57.02
2022-10-27T16:02:32.282Z,58.25
2022-10-27T16:05:34.162Z,57.53
2022-10-27T16:08:22.774Z,57.16
2022-10-27T16:11:14.474Z,57.66
2022-10-27T16:14:32.959Z,58.07
2022-10-27T16:17:41.268Z,58.44
2022-10-27T16:20:45.358Z,58.21
2022-10-27T16:23:38.884Z,58.00
2022-10-27T16:26:30.840Z,57.92
2022-10-27T16:29:22.965Z,58.11
2022-10-27T16:32:13.833Z,58.26
2022-10-27T16:35:06.071Z,58.36
2022-10-27T16:37:54.811Z,58.55
2022-10-27T16:40:47.669Z,58.61
2022-10-27T16:43:38.189Z,59.06
2022-10-27T16:46:28.573Z,58.77
2022-10-27T16:49:17.423Z,58.63
2022-10-27T16:52:09.869Z,59.07
2022-10-27T16:54:59.724Z,59.26
2022-10-27T16:57:51.555Z,58.86
2022-10-27T17:00:46.630Z,59.32
2022-10-27T17:03:40.695Z,59.03
2022-10-27T17:06:30.102Z,58.48
2022-10-27T17:09:27.326Z,58.41
2022-10-27T17:12:16.066Z,58.15
2022-10-27T17:15:25.809Z,58.35
2022-10-27T17:18:15.512Z,58.31
2022-10-27T17:21:07.734Z,58.12
2022-10-27T17:23:56.528Z,58.25
2022-10-27T17:26:45.600Z,58.09
2022-10-27T17:29:34.457Z,58.62
2022-10-27T17:32:24.406Z,58.79
2022-10-27T17:35:13.126Z,58.75
2022-10-27T17:38:02.878Z,59.11
2022-10-27T17:40:53.398Z,59.15
2022-10-27T17:43:42.615Z,59.14
2022-10-27T17:46:31.675Z,59.01
2022-10-27T17:49:30.593Z,59.34
2022-10-27T17:52:20.240Z,59.55
2022-10-27T17:55:09.932Z,59.32
2022-10-27T17:57:59.627Z,59.80
2022-10-27T18:00:48.810Z,59.99
2022-10-27T18:03:42.320Z,59.75
2022-10-27T18:06:33.096Z,60.24
2022-10-27T18:09:22.805Z,60.08
2022-10-27T18:12:12.402Z,60.03
2022-10-27T18:15:23.797Z,59.99
2022-10-27T18:18:11.212Z,60.00
2022-10-27T18:21:05.730Z,60.44
2022-10-27T18:23:59.970Z,60.47
2022-10-27T18:26:49.240Z,60.58
2022-10-27T18:29:39.767Z,61.18
2022-10-27T18:32:31.141Z,61.19
2022-10-27T18:35:22.337Z,61.58
2022-10-27T18:38:11.476Z,61.70
2022-10-27T18:41:04.431Z,61.52
2022-10-27T18:43:55.365Z,61.85
2022-10-27T18:46:45.111Z,61.82
2022-10-27T18:49:48.060Z,62.03
2022-10-27T18:52:38.544Z,62.11
2022-10-27T18:55:27.335Z,62.39
2022-10-27T18:58:16.343Z,62.65
2022-10-27T19:01:16.040Z,62.59
2022-10-27T19:04:09.815Z,62.46
2022-10-27T19:06:59.363Z,62.90
2022-10-27T19:09:49.177Z,62.53
2022-10-27T19:12:38.069Z,62.73
2022-10-27T19:15:27.802Z,62.92
2022-10-27T19:18:16.982Z,62.76
2022-10-27T19:24:03.299Z,62.91
2022-10-27T19:26:54.325Z,63.33
2022-10-27T19:29:43.110Z,63.09
2022-10-27T19:32:32.819Z,63.35
2022-10-27T19:35:22.146Z,63.34
2022-10-27T19:38:11.701Z,63.44
2022-10-27T19:41:01.345Z,63.51
2022-10-27T19:43:55.694Z,63.60
2022-10-27T19:46:44.845Z,63.82
2022-10-27T19:49:33.909Z,63.90
2022-10-27T19:52:23.190Z,63.79
2022-10-27T19:55:12.396Z,64.26
2022-10-27T19:58:01.718Z,64.15
2022-10-27T20:00:50.644Z,64.05
2022-10-27T20:03:41.356Z,64.40
2022-10-27T20:06:35.659Z,64.38
2022-10-27T20:09:24.992Z,64.22
2022-10-27T20:12:14.090Z,64.01
2022-10-27T20:15:03.088Z,63.83
2022-10-27T20:17:52.709Z,64.18
2022-10-27T20:20:42.271Z,64.40
2022-10-27T20:23:32.424Z,63.84
2022-10-27T20:26:29.033Z,63.93
2022-10-27T20:29:24.134Z,64.60
2022-10-27T20:32:16.305Z,64.72
2022-10-27T20:35:07.103Z,64.51
2022-10-27T20:37:57.416Z,64.88
2022-10-27T20:40:49.202Z,64.34
2022-10-27T20:43:38.542Z,64.52
2022-10-27T20:46:29.627Z,64.38
2022-10-27T20:49:18.469Z,64.78
2022-10-27T20:52:07.846Z,64.88
2022-10-27T20:54:56.897Z,65.05
2022-10-27T20:57:46.376Z,65.20
2022-10-27T21:00:35.328Z,64.79
2022-10-27T21:03:24.908Z,65.33
2022-10-27T21:06:14.103Z,65.22
2022-10-27T21:09:05.774Z,65.39
2022-10-27T21:11:54.790Z,65.27
2022-10-27T21:14:44.518Z,65.58
2022-10-27T21:17:33.974Z,65.35
2022-10-27T21:20:22.756Z,65.40
2022-10-27T21:23:14.655Z,65.99
2022-10-27T21:26:07.610Z,65.86
2022-10-27T21:28:57.901Z,65.51
2022-10-27T21:31:47.568Z,65.91
2022-10-27T21:34:36.984Z,65.69
2022-10-27T21:37:27.212Z,65.92
2022-10-27T21:40:18.751Z,66.27
2022-10-27T21:43:07.752Z,66.33
2022-10-27T21:45:57.855Z,65.96
2022-10-27T21:48:47.076Z,65.89
2022-10-27T21:51:36.310Z,66.05
2022-10-27T21:54:26.337Z,66.11
2022-10-27T21:57:15.328Z,66.54
2022-10-27T22:00:05.119Z,66.09
2022-10-27T22:02:53.371Z,66.38
2022-10-27T22:05:43.865Z,66.52
2022-10-27T22:08:32.857Z,66.70
2022-10-27T22:11:24.943Z,66.42
2022-10-27T22:14:14.995Z,66.36
2022-10-27T22:17:03.699Z,66.61
2022-10-27T22:19:54.215Z,66.80
2022-10-27T22:22:43.388Z,66.53
2022-10-27T22:25:33.624Z,66.60
2022-10-27T22:28:22.500Z,66.93
2022-10-27T22:31:13.737Z,66.53
2022-10-27T22:34:04.098Z,66.92
2022-10-27T22:36:53.799Z,66.75
2022-10-27T22:39:42.764Z,67.24
2022-10-27T22:42:32.249Z,66.89
2022-10-27T22:45:23.520Z,67.41
2022-10-27T22:48:12.352Z,67.25
2022-10-27T22:51:06.764Z,67.06
2022-10-27T22:53:56.874Z,67.04
2022-10-27T22:56:45.863Z,67.47
2022-10-27T22:59:35.222Z,67.37
2022-10-27T23:02:24.923Z,67.62
2022-10-27T23:05:17.368Z,67.73
2022-10-27T23:08:06.592Z,67.66
2022-10-27T23:11:04.712Z,67.81
2022-10-27T23:13:54.394Z,67.78
2022-10-27T23:16:44.918Z,67.44
2022-10-27T23:19:34.070Z,67.48
2022-10-27T23:22:26.180Z,67.79
2022-10-27T23:25:15.749Z,67.63
2022-10-27T23:28:06.157Z,67.77
2022-10-27T23:30:55.327Z,66.96
2022-10-27T23:33:47.606Z,66.68
2022-10-27T23:36:37.110Z,66.52
2022-10-27T23:39:27.791Z,66.41
2022-10-27T23:42:16.988Z,65.66
2022-10-27T23:45:06.274Z,65.74
2022-10-27T23:47:55.521Z,65.78
2022-10-27T23:50:45.294Z,65.42
2022-10-27T23:53:44.463Z,65.28
2022-10-27T23:56:33.189Z,64.76
2022-10-27T23:59:22.981Z,64.85
